sensor_id;sensor_type;location;lat;lon;timestamp;P1;durP1;ratioP1;P2;durP2;ratioP2
13204;SDS011;6667;52.634;9.226;2022-10-26T06:19:52;7.50;;;4.70;;
13204;SDS011;6667;52.634;9.226;2022-10-26T06:22:35;6.00;;;4.70;;
13204;SDS011;6667;52.634;9.226;2022-10-26T06:25:18;9.27;;;4.90;;
13204;SDS011;6667;52.634;9.226;2022-10-26T06:27:51;8.17;;;4.77;;
13204;SDS011;6667;52.634;9.226;2022-10-26T06:30:26;6.97;;;4.37;;
13204;SDS011;6667;52.634;9.226;2022-10-26T06:32:53;6.13;;;4.87;;
13204;SDS011;6667;52.634;9.226;2022-10-26T06:35:24;9.53;;;4.70;;
13204;SDS011;6667;52.634;9.226;2022-10-26T06:37:59;6.17;;;4.83;;
13204;SDS011;6667;52.634;9.226;2022-10-26T06:40:29;6.70;;;4.37;;
13204;SDS011;6667;52.634;9.226;2022-10-26T06:43:00;6.97;;;4.57;;
13204;SDS011;6667;52.634;9.226;2022-10-26T06:45:27;6.97;;;4.47;;
13204;SDS011;6667;52.634;9.226;2022-10-26T06:47:56;6.53;;;4.20;;
13204;SDS011;6667;52.634;9.226;2022-10-26T06:50:31;6.70;;;4.43;;
13204;SDS011;6667;52.634;9.226;2022-10-26T06:53:05;5.27;;;3.80;;
13204;SDS011;6667;52.634;9.226;2022-10-26T06:55:42;7.13;;;4.83;;
13204;SDS011;6667;52.634;9.226;2022-10-26T06:58:12;8.13;;;4.97;;
13204;SDS011;6667;52.634;9.226;2022-10-26T07:00:42;7.23;;;4.97;;
13204;SDS011;6667;52.634;9.226;2022-10-26T07:03:10;6.50;;;5.30;;
13204;SDS011;6667;52.634;9.226;2022-10-26T07:05:38;8.27;;;5.67;;
13204;SDS011;6667;52.634;9.226;2022-10-26T07:08:05;7.57;;;5.00;;
13204;SDS011;6667;52.634;9.226;2022-10-26T07:10:31;6.60;;;4.90;;
13204;SDS011;6667;52.634;9.226;2022-10-26T07:13:02;8.17;;;5.37;;
13204;SDS011;6667;52.634;9.226;2022-10-26T07:15:29;11.73;;;6.60;;
13204;SDS011;6667;52.634;9.226;2022-10-26T07:17:56;9.10;;;6.17;;
13204;SDS011;6667;52.634;9.226;2022-10-26T07:20:23;7.67;;;4.90;;
13204;SDS011;6667;52.634;9.226;2022-10-26T07:22:54;10.20;;;5.30;;
13204;SDS011;6667;52.634;9.226;2022-10-26T07:25:21;6.47;;;4.60;;
13204;SDS011;6667;52.634;9.226;2022-10-26T07:27:49;8.20;;;5.17;;
13204;SDS011;6667;52.634;9.226;2022-10-26T07:30:16;6.93;;;5.37;;
13204;SDS011;6667;52.634;9.226;2022-10-26T07:32:43;8.07;;;5.50;;
13204;SDS011;6667;52.634;9.226;2022-10-26T07:35:10;6.87;;;4.93;;
13204;SDS011;6667;52.634;9.226;2022-10-26T07:37:37;7.47;;;5.50;;
13204;SDS011;6667;52.634;9.226;2022-10-26T07:40:06;7.73;;;6.07;;
13204;SDS011;6667;52.634;9.226;2022-10-26T07:42:33;9.10;;;6.03;;
13204;SDS011;6667;52.634;9.226;2022-10-26T07:45:01;10.70;;;6.57;;
13204;SDS011;6667;52.634;9.226;2022-10-26T07:47:27;7.00;;;5.63;;
13204;SDS011;6667;52.634;9.226;2022-10-26T07:49:54;11.63;;;6.30;;
13204;SDS011;6667;52.634;9.226;2022-10-26T07:52:21;8.07;;;5.23;;
13204;SDS011;6667;52.634;9.226;2022-10-26T07:54:47;7.90;;;5.87;;
13204;SDS011;6667;52.634;9.226;2022-10-26T07:57:16;11.60;;;6.43;;
13204;SDS011;6667;52.634;9.226;2022-10-26T07:59:42;13.33;;;6.70;;
13204;SDS011;6667;52.634;9.226;2022-10-26T08:02:09;8.80;;;6.27;;
13204;SDS011;6667;52.634;9.226;2022-10-26T08:04:36;8.77;;;5.67;;
13204;SDS011;6667;52.634;9.226;2022-10-26T08:07:02;12.60;;;6.80;;
13204;SDS011;6667;52.634;9.226;2022-10-26T08:09:29;11.03;;;6.67;;
13204;SDS011;6667;52.634;9.226;2022-10-26T08:11:56;10.07;;;6.13;;
13204;SDS011;6667;52.634;9.226;2022-10-26T08:14:24;10.83;;;6.20;;
13204;SDS011;6667;52.634;9.226;2022-10-26T08:16:50;11.03;;;7.03;;
13204;SDS011;6667;52.634;9.226;2022-10-26T08:19:17;13.93;;;7.50;;
13204;SDS011;6667;52.634;9.226;2022-10-26T08:21:44;12.70;;;8.00;;
13204;SDS011;6667;52.634;9.226;2022-10-26T08:24:11;12.70;;;7.90;;
13204;SDS011;6667;52.634;9.226;2022-10-26T08:26:37;13.80;;;8.20;;
13204;SDS011;6667;52.634;9.226;2022-10-26T08:29:04;12.97;;;8.00;;
13204;SDS011;6667;52.634;9.226;2022-10-26T08:31:32;17.97;;;9.53;;
13204;SDS011;6667;52.634;9.226;2022-10-26T08:33:59;13.07;;;8.00;;
13204;SDS011;6667;52.634;9.226;2022-10-26T08:36:28;13.77;;;8.07;;
13204;SDS011;6667;52.634;9.226;2022-10-26T08:38:54;15.10;;;8.00;;
13204;SDS011;6667;52.634;9.226;2022-10-26T08:41:23;12.20;;;8.33;;
13204;SDS011;6667;52.634;9.226;2022-10-26T08:43:58;13.93;;;8.97;;
13204;SDS011;6667;52.634;9.226;2022-10-26T08:46:32;16.20;;;9.47;;
13204;SDS011;6667;52.634;9.226;2022-10-26T08:49:07;15.80;;;8.77;;
13204;SDS011;6667;52.634;9.226;2022-10-26T08:51:43;11.60;;;8.23;;
13204;SDS011;6667;52.634;9.226;2022-10-26T08:54:13;15.43;;;7.60;;
13204;SDS011;6667;52.634;9.226;2022-10-26T08:56:44;10.50;;;7.73;;
13204;SDS011;6667;52.634;9.226;2022-10-26T08:59:21;13.73;;;8.23;;
13204;SDS011;6667;52.634;9.226;2022-10-26T09:01:56;13.67;;;8.67;;
13204;SDS011;6667;52.634;9.226;2022-10-26T09:04:26;17.10;;;8.67;;
13204;SDS011;6667;52.634;9.226;2022-10-26T09:06:55;17.03;;;8.73;;
13204;SDS011;6667;52.634;9.226;2022-10-26T09:09:27;15.70;;;9.07;;
13204;SDS011;6667;52.634;9.226;2022-10-26T09:12:09;17.23;;;9.17;;
13204;SDS011;6667;52.634;9.226;2022-10-26T09:14:42;13.87;;;9.17;;
13204;SDS011;6667;52.634;9.226;2022-10-26T09:17:20;16.93;;;8.90;;
13204;SDS011;6667;52.634;9.226;2022-10-26T09:20:01;13.40;;;8.10;;
13204;SDS011;6667;52.634;9.226;2022-10-26T09:22:37;12.27;;;7.77;;
13204;SDS011;6667;52.634;9.226;2022-10-26T09:25:16;12.17;;;7.27;;
13204;SDS011;6667;52.634;9.226;2022-10-26T09:27:46;12.17;;;6.63;;
13204;SDS011;6667;52.634;9.226;2022-10-26T09:30:15;13.73;;;6.10;;
13204;SDS011;6667;52.634;9.226;2022-10-26T09:32:45;8.77;;;5.53;;
13204;SDS011;6667;52.634;9.226;2022-10-26T09:35:14;6.70;;;4.77;;
13204;SDS011;6667;52.634;9.226;2022-10-26T09:37:46;7.77;;;5.13;;
13204;SDS011;6667;52.634;9.226;2022-10-26T09:40:17;9.00;;;5.03;;
13204;SDS011;6667;52.634;9.226;2022-10-26T09:42:50;6.97;;;4.57;;
13204;SDS011;6667;52.634;9.226;2022-10-26T09:45:23;6.03;;;4.10;;
13204;SDS011;6667;52.634;9.226;2022-10-26T09:47:57;6.90;;;4.03;;
13204;SDS011;6667;52.634;9.226;2022-10-26T09:50:29;7.63;;;3.90;;
13204;SDS011;6667;52.634;9.226;2022-10-26T09:52:59;5.73;;;3.87;;
13204;SDS011;6667;52.634;9.226;2022-10-26T09:55:25;5.73;;;3.50;;
13204;SDS011;6667;52.634;9.226;2022-10-26T09:57:55;5.37;;;3.43;;
13204;SDS011;6667;52.634;9.226;2022-10-26T10:00:27;9.23;;;3.57;;
13204;SDS011;6667;52.634;9.226;2022-10-26T10:02:55;9.97;;;3.90;;
13204;SDS011;6667;52.634;9.226;2022-10-26T10:05:25;4.13;;;2.73;;
13204;SDS011;6667;52.634;9.226;2022-10-26T10:08:08;4.87;;;2.90;;
13204;SDS011;6667;52.634;9.226;2022-10-26T10:10:37;5.97;;;2.63;;
13204;SDS011;6667;52.634;9.226;2022-10-26T10:13:13;9.37;;;3.53;;
13204;SDS011;6667;52.634;9.226;2022-10-26T10:15:44;4.10;;;3.00;;
13204;SDS011;6667;52.634;9.226;2022-10-26T10:18:19;4.33;;;2.93;;
13204;SDS011;6667;52.634;9.226;2022-10-26T10:20:51;4.57;;;2.97;;
13204;SDS011;6667;52.634;9.226;2022-10-26T10:23:24;5.00;;;2.90;;
13204;SDS011;6667;52.634;9.226;2022-10-26T10:25:57;4.53;;;2.67;;
13204;SDS011;6667;52.634;9.226;2022-10-26T10:28:29;3.67;;;2.63;;
13204;SDS011;6667;52.634;9.226;2022-10-26T10:30:57;7.37;;;2.80;;
13204;SDS011;6667;52.634;9.226;2022-10-26T10:33:33;8.50;;;2.73;;
13204;SDS011;6667;52.634;9.226;2022-10-26T10:36:03;3.80;;;2.30;;
13204;SDS011;6667;52.634;9.226;2022-10-26T10:38:35;5.20;;;2.40;;
13204;SDS011;6667;52.634;9.226;2022-10-26T10:41:05;5.40;;;2.60;;
13204;SDS011;6667;52.634;9.226;2022-10-26T10:43:51;4.67;;;2.50;;
13204;SDS011;6667;52.634;9.226;2022-10-26T10:46:21;6.33;;;2.40;;
13204;SDS011;6667;52.634;9.226;2022-10-26T10:48:53;6.13;;;3.15;;
13204;SDS011;6667;52.634;9.226;2022-10-26T10:51:26;5.97;;;2.50;;
13204;SDS011;6667;52.634;9.226;2022-10-26T10:53:54;3.97;;;2.33;;
13204;SDS011;6667;52.634;9.226;2022-10-26T10:56:24;5.07;;;2.40;;
13204;SDS011;6667;52.634;9.226;2022-10-26T10:59:00;7.40;;;4.23;;
13204;SDS011;6667;52.634;9.226;2022-10-26T11:01:37;4.47;;;2.50;;
13204;SDS011;6667;52.634;9.226;2022-10-26T11:07:04;6.70;;;2.93;;
13204;SDS011;6667;52.634;9.226;2022-10-26T11:09:32;3.10;;;1.90;;
13204;SDS011;6667;52.634;9.226;2022-10-26T11:12:03;4.83;;;2.60;;
13204;SDS011;6667;52.634;9.226;2022-10-26T11:14:36;6.43;;;2.50;;
13204;SDS011;6667;52.634;9.226;2022-10-26T11:17:07;2.77;;;2.03;;
13204;SDS011;6667;52.634;9.226;2022-10-26T11:19:41;4.27;;;2.37;;
13204;SDS011;6667;52.634;9.226;2022-10-26T11:22:12;6.43;;;2.70;;
13204;SDS011;6667;52.634;9.226;2022-10-26T11:24:43;2.70;;;2.20;;
13204;SDS011;6667;52.634;9.226;2022-10-26T11:27:15;4.30;;;2.30;;
13204;SDS011;6667;52.634;9.226;2022-10-26T11:29:45;4.23;;;2.10;;
13204;SDS011;6667;52.634;9.226;2022-10-26T11:32:18;4.82;;;2.70;;
13204;SDS011;6667;52.634;9.226;2022-10-26T11:34:50;4.27;;;2.57;;
13204;SDS011;6667;52.634;9.226;2022-10-26T11:37:24;3.60;;;2.20;;
13204;SDS011;6667;52.634;9.226;2022-10-26T11:40:00;5.93;;;2.30;;
13204;SDS011;6667;52.634;9.226;2022-10-26T11:42:30;3.63;;;1.83;;
13204;SDS011;6667;52.634;9.226;2022-10-26T11:45:02;6.30;;;2.33;;
13204;SDS011;6667;52.634;9.226;2022-10-26T11:47:39;4.07;;;2.00;;
13204;SDS011;6667;52.634;9.226;2022-10-26T11:50:16;5.00;;;2.50;;
13204;SDS011;6667;52.634;9.226;2022-10-26T11:52:47;5.13;;;1.83;;
13204;SDS011;6667;52.634;9.226;2022-10-26T11:55:17;4.13;;;2.10;;
13204;SDS011;6667;52.634;9.226;2022-10-26T11:57:45;5.07;;;2.40;;
13204;SDS011;6667;52.634;9.226;2022-10-26T12:00:13;3.83;;;2.17;;
13204;SDS011;6667;52.634;9.226;2022-10-26T12:02:42;3.20;;;2.13;;
13204;SDS011;6667;52.634;9.226;2022-10-26T12:05:31;2.63;;;2.00;;
13204;SDS011;6667;52.634;9.226;2022-10-26T12:08:00;6.90;;;2.13;;
13204;SDS011;6667;52.634;9.226;2022-10-26T12:10:31;4.77;;;2.30;;
13204;SDS011;6667;52.634;9.226;2022-10-26T12:13:03;5.60;;;2.17;;
13204;SDS011;6667;52.634;9.226;2022-10-26T12:15:38;4.40;;;2.33;;
13204;SDS011;6667;52.634;9.226;2022-10-26T12:18:11;4.40;;;2.43;;
13204;SDS011;6667;52.634;9.226;2022-10-26T12:20:50;3.53;;;2.00;;
13204;SDS011;6667;52.634;9.226;2022-10-26T12:23:20;6.67;;;2.77;;
13204;SDS011;6667;52.634;9.226;2022-10-26T12:25:48;5.47;;;2.40;;
13204;SDS011;6667;52.634;9.226;2022-10-26T12:28:36;5.80;;;2.65;;
13204;SDS011;6667;52.634;9.226;2022-10-26T12:34:09;3.58;;;1.98;;
13204;SDS011;6667;52.634;9.226;2022-10-26T12:36:49;4.70;;;2.58;;
13204;SDS011;6667;52.634;9.226;2022-10-26T12:39:36;2.25;;;1.98;;
13204;SDS011;6667;52.634;9.226;2022-10-26T12:42:09;3.03;;;1.80;;
13204;SDS011;6667;52.634;9.226;2022-10-26T12:45:00;4.68;;;2.28;;
13204;SDS011;6667;52.634;9.226;2022-10-26T12:50:29;7.30;;;2.55;;
13204;SDS011;6667;52.634;9.226;2022-10-26T12:52:57;5.70;;;1.65;;
13204;SDS011;6667;52.634;9.226;2022-10-26T12:55:47;4.68;;;1.92;;
13204;SDS011;6667;52.634;9.226;2022-10-26T13:01:47;3.97;;;1.90;;
13204;SDS011;6667;52.634;9.226;2022-10-26T13:07:44;8.10;;;1.92;;
13204;SDS011;6667;52.634;9.226;2022-10-26T13:10:19;2.55;;;1.90;;
13204;SDS011;6667;52.634;9.226;2022-10-26T13:12:48;2.90;;;1.70;;
13204;SDS011;6667;52.634;9.226;2022-10-26T13:15:21;3.65;;;2.05;;
13204;SDS011;6667;52.634;9.226;2022-10-26T13:17:51;7.25;;;2.38;;
13204;SDS011;6667;52.634;9.226;2022-10-26T13:20:23;3.92;;;1.70;;
13204;SDS011;6667;52.634;9.226;2022-10-26T13:22:51;3.88;;;1.58;;
13204;SDS011;6667;52.634;9.226;2022-10-26T13:25:21;2.30;;;1.58;;
13204;SDS011;6667;52.634;9.226;2022-10-26T13:27:57;2.47;;;1.70;;
13204;SDS011;6667;52.634;9.226;2022-10-26T13:33:17;6.45;;;1.60;;
13204;SDS011;6667;52.634;9.226;2022-10-26T13:35:46;4.65;;;1.80;;
13204;SDS011;6667;52.634;9.226;2022-10-26T13:38:14;2.22;;;1.58;;
13204;SDS011;6667;52.634;9.226;2022-10-26T13:40:46;5.30;;;1.70;;
13204;SDS011;6667;52.634;9.226;2022-10-26T13:43:15;4.38;;;1.40;;
13204;SDS011;6667;52.634;9.226;2022-10-26T13:45:48;1.50;;;1.40;;
13204;SDS011;6667;52.634;9.226;2022-10-26T13:48:19;4.10;;;2.00;;
13204;SDS011;6667;52.634;9.226;2022-10-26T13:50:52;6.75;;;3.20;;
13204;SDS011;6667;52.634;9.226;2022-10-26T13:53:21;3.85;;;1.85;;
13204;SDS011;6667;52.634;9.226;2022-10-26T13:55:54;4.07;;;1.70;;
13204;SDS011;6667;52.634;9.226;2022-10-26T13:58:27;3.35;;;1.17;;
13204;SDS011;6667;52.634;9.226;2022-10-26T14:01:00;3.20;;;1.10;;
13204;SDS011;6667;52.634;9.226;2022-10-26T14:03:37;5.57;;;1.45;;
13204;SDS011;6667;52.634;9.226;2022-10-26T14:06:04;2.63;;;1.40;;
13204;SDS011;6667;52.634;9.226;2022-10-26T14:08:35;4.13;;;1.38;;
13204;SDS011;6667;52.634;9.226;2022-10-26T14:11:06;4.68;;;1.67;;
13204;SDS011;6667;52.634;9.226;2022-10-26T14:13:38;10.20;;;1.85;;
13204;SDS011;6667;52.634;9.226;2022-10-26T14:16:05;3.92;;;1.45;;
13204;SDS011;6667;52.634;9.226;2022-10-26T14:18:34;4.45;;;1.30;;
13204;SDS011;6667;52.634;9.226;2022-10-26T14:21:03;3.28;;;1.60;;
13204;SDS011;6667;52.634;9.226;2022-10-26T14:23:32;3.53;;;1.08;;
13204;SDS011;6667;52.634;9.226;2022-10-26T14:26:00;4.25;;;1.30;;
13204;SDS011;6667;52.634;9.226;2022-10-26T14:28:29;4.35;;;1.35;;
13204;SDS011;6667;52.634;9.226;2022-10-26T14:31:10;7.18;;;1.50;;
13204;SDS011;6667;52.634;9.226;2022-10-26T14:33:37;15.90;;;3.17;;
13204;SDS011;6667;52.634;9.226;2022-10-26T14:36:04;9.27;;;2.00;;
13204;SDS011;6667;52.634;9.226;2022-10-26T14:38:33;1.70;;;1.10;;
13204;SDS011;6667;52.634;9.226;2022-10-26T14:41:07;6.45;;;2.22;;
13204;SDS011;6667;52.634;9.226;2022-10-26T14:43:36;2.22;;;1.30;;
13204;SDS011;6667;52.634;9.226;2022-10-26T14:46:03;3.60;;;1.60;;
13204;SDS011;6667;52.634;9.226;2022-10-26T14:48:31;3.15;;;1.20;;
13204;SDS011;6667;52.634;9.226;2022-10-26T14:51:00;2.28;;;1.17;;
13204;SDS011;6667;52.634;9.226;2022-10-26T14:53:30;6.53;;;1.60;;
13204;SDS011;6667;52.634;9.226;2022-10-26T14:56:02;7.53;;;2.20;;
13204;SDS011;6667;52.634;9.226;2022-10-26T14:58:30;3.80;;;1.30;;
13204;SDS011;6667;52.634;9.226;2022-10-26T15:01:21;1.70;;;1.20;;
13204;SDS011;6667;52.634;9.226;2022-10-26T15:03:51;2.95;;;1.40;;
13204;SDS011;6667;52.634;9.226;2022-10-26T15:06:33;2.90;;;1.23;;
13204;SDS011;6667;52.634;9.226;2022-10-26T15:09:05;4.43;;;1.15;;
13204;SDS011;6667;52.634;9.226;2022-10-26T15:11:52;3.00;;;1.05;;
13204;SDS011;6667;52.634;9.226;2022-10-26T15:14:18;3.55;;;1.50;;
13204;SDS011;6667;52.634;9.226;2022-10-26T15:16:50;1.50;;;1.30;;
13204;SDS011;6667;52.634;9.226;2022-10-26T15:19:19;3.58;;;1.45;;
13204;SDS011;6667;52.634;9.226;2022-10-26T15:21:48;5.40;;;1.23;;
13204;SDS011;6667;52.634;9.226;2022-10-26T15:24:21;2.65;;;1.42;;
13204;SDS011;6667;52.634;9.226;2022-10-26T15:26:55;5.05;;;1.30;;
13204;SDS011;6667;52.634;9.226;2022-10-26T15:29:35;3.97;;;1.17;;
13204;SDS011;6667;52.634;9.226;2022-10-26T15:32:05;2.67;;;1.30;;
13204;SDS011;6667;52.634;9.226;2022-10-26T15:34:45;6.47;;;2.28;;
13204;SDS011;6667;52.634;9.226;2022-10-26T15:37:32;2.58;;;1.38;;
13204;SDS011;6667;52.634;9.226;2022-10-26T15:39:59;3.45;;;2.00;;
13204;SDS011;6667;52.634;9.226;2022-10-26T15:42:25;6.87;;;2.93;;
13204;SDS011;6667;52.634;9.226;2022-10-26T15:44:53;8.82;;;2.30;;
13204;SDS011;6667;52.634;9.226;2022-10-26T15:47:21;6.97;;;1.80;;
13204;SDS011;6667;52.634;9.226;2022-10-26T15:49:56;2.35;;;1.40;;
13204;SDS011;6667;52.634;9.226;2022-10-26T15:52:23;2.45;;;1.30;;
13204;SDS011;6667;52.634;9.226;2022-10-26T15:54:50;4.88;;;1.67;;
13204;SDS011;6667;52.634;9.226;2022-10-26T15:57:17;5.78;;;1.70;;
13204;SDS011;6667;52.634;9.226;2022-10-26T15:59:44;2.03;;;1.38;;
13204;SDS011;6667;52.634;9.226;2022-10-26T16:02:11;2.80;;;1.48;;
13204;SDS011;6667;52.634;9.226;2022-10-26T16:04:40;3.88;;;1.50;;
13204;SDS011;6667;52.634;9.226;2022-10-26T16:07:09;5.63;;;1.95;;
13204;SDS011;6667;52.634;9.226;2022-10-26T16:09:38;3.75;;;1.60;;
13204;SDS011;6667;52.634;9.226;2022-10-26T16:12:07;3.83;;;1.45;;
13204;SDS011;6667;52.634;9.226;2022-10-26T16:14:35;2.65;;;1.35;;
13204;SDS011;6667;52.634;9.226;2022-10-26T16:17:03;3.33;;;1.33;;
13204;SDS011;6667;52.634;9.226;2022-10-26T16:19:31;5.80;;;1.70;;
13204;SDS011;6667;52.634;9.226;2022-10-26T16:22:00;6.00;;;2.33;;
13204;SDS011;6667;52.634;9.226;2022-10-26T16:24:27;5.10;;;1.70;;
13204;SDS011;6667;52.634;9.226;2022-10-26T16:26:56;5.20;;;2.10;;
13204;SDS011;6667;52.634;9.226;2022-10-26T16:29:23;6.47;;;2.27;;
13204;SDS011;6667;52.634;9.226;2022-10-26T16:31:49;7.97;;;3.25;;
13204;SDS011;6667;52.634;9.226;2022-10-26T16:34:16;4.93;;;2.77;;
13204;SDS011;6667;52.634;9.226;2022-10-26T16:36:43;8.20;;;3.03;;
13204;SDS011;6667;52.634;9.226;2022-10-26T16:39:11;11.47;;;2.97;;
13204;SDS011;6667;52.634;9.226;2022-10-26T16:41:38;5.90;;;2.63;;
13204;SDS011;6667;52.634;9.226;2022-10-26T16:44:04;3.77;;;2.40;;
13204;SDS011;6667;52.634;9.226;2022-10-26T16:46:31;4.00;;;2.27;;
13204;SDS011;6667;52.634;9.226;2022-10-26T16:48:58;4.27;;;2.50;;
13204;SDS011;6667;52.634;9.226;2022-10-26T16:51:25;5.23;;;2.13;;
13204;SDS011;6667;52.634;9.226;2022-10-26T16:53:53;5.93;;;2.27;;
13204;SDS011;6667;52.634;9.226;2022-10-26T16:56:23;5.47;;;2.23;;
13204;SDS011;6667;52.634;9.226;2022-10-26T16:58:51;7.03;;;2.57;;
13204;SDS011;6667;52.634;9.226;2022-10-26T17:01:19;4.20;;;2.30;;
13204;SDS011;6667;52.634;9.226;2022-10-26T17:03:46;5.00;;;2.97;;
13204;SDS011;6667;52.634;9.226;2022-10-26T17:06:14;6.60;;;2.30;;
13204;SDS011;6667;52.634;9.226;2022-10-26T17:08:42;6.07;;;2.13;;
13204;SDS011;6667;52.634;9.226;2022-10-26T17:11:09;6.97;;;2.87;;
13204;SDS011;6667;52.634;9.226;2022-10-26T17:13:39;6.13;;;2.33;;
13204;SDS011;6667;52.634;9.226;2022-10-26T17:16:06;4.97;;;1.83;;
13204;SDS011;6667;52.634;9.226;2022-10-26T17:18:35;3.47;;;1.70;;
13204;SDS011;6667;52.634;9.226;2022-10-26T17:21:04;4.77;;;1.87;;
13204;SDS011;6667;52.634;9.226;2022-10-26T17:23:31;5.57;;;2.40;;
13204;SDS011;6667;52.634;9.226;2022-10-26T17:25:59;3.77;;;2.63;;
13204;SDS011;6667;52.634;9.226;2022-10-26T17:28:26;3.33;;;2.00;;
13204;SDS011;6667;52.634;9.226;2022-10-26T17:31:01;3.63;;;2.00;;
13204;SDS011;6667;52.634;9.226;2022-10-26T17:33:30;3.60;;;2.07;;
13204;SDS011;6667;52.634;9.226;2022-10-26T17:35:58;4.93;;;2.10;;
13204;SDS011;6667;52.634;9.226;2022-10-26T17:38:25;3.43;;;2.00;;
13204;SDS011;6667;52.634;9.226;2022-10-26T17:40:58;4.87;;;2.00;;
13204;SDS011;6667;52.634;9.226;2022-10-26T17:43:25;5.73;;;2.00;;
13204;SDS011;6667;52.634;9.226;2022-10-26T17:45:56;4.57;;;2.10;;
13204;SDS011;6667;52.634;9.226;2022-10-26T17:48:25;5.37;;;2.30;;
13204;SDS011;6667;52.634;9.226;2022-10-26T17:50:52;5.37;;;2.27;;
13204;SDS011;6667;52.634;9.226;2022-10-26T17:53:19;5.10;;;2.23;;
13204;SDS011;6667;52.634;9.226;2022-10-26T17:55:45;3.83;;;1.90;;
13204;SDS011;6667;52.634;9.226;2022-10-26T17:58:12;5.40;;;2.70;;
13204;SDS011;6667;52.634;9.226;2022-10-26T18:00:39;3.67;;;2.10;;
13204;SDS011;6667;52.634;9.226;2022-10-26T18:03:06;2.27;;;2.07;;
13204;SDS011;6667;52.634;9.226;2022-10-26T18:05:34;4.77;;;2.13;;
13204;SDS011;6667;52.634;9.226;2022-10-26T18:08:01;4.43;;;2.13;;
13204;SDS011;6667;52.634;9.226;2022-10-26T18:10:27;5.10;;;2.33;;
13204;SDS011;6667;52.634;9.226;2022-10-26T18:12:54;3.00;;;2.50;;
13204;SDS011;6667;52.634;9.226;2022-10-26T18:15:21;5.30;;;2.27;;
13204;SDS011;6667;52.634;9.226;2022-10-26T18:17:49;4.00;;;2.30;;
13204;SDS011;6667;52.634;9.226;2022-10-26T18:20:15;4.53;;;2.67;;
13204;SDS011;6667;52.634;9.226;2022-10-26T18:22:45;7.37;;;2.90;;
13204;SDS011;6667;52.634;9.226;2022-10-26T18:25:12;4.60;;;2.27;;
13204;SDS011;6667;52.634;9.226;2022-10-26T18:27:39;5.07;;;3.00;;
13204;SDS011;6667;52.634;9.226;2022-10-26T18:30:06;5.43;;;2.77;;
13204;SDS011;6667;52.634;9.226;2022-10-26T18:32:34;4.67;;;2.97;;
13204;SDS011;6667;52.634;9.226;2022-10-26T18:35:00;6.67;;;3.17;;
13204;SDS011;6667;52.634;9.226;2022-10-26T18:37:27;4.47;;;2.93;;
13204;SDS011;6667;52.634;9.226;2022-10-26T18:39:55;4.23;;;2.90;;
13204;SDS011;6667;52.634;9.226;2022-10-26T18:42:22;8.17;;;3.43;;
13204;SDS011;6667;52.634;9.226;2022-10-26T18:44:48;7.87;;;3.23;;
13204;SDS011;6667;52.634;9.226;2022-10-26T18:47:15;4.57;;;3.00;;
13204;SDS011;6667;52.634;9.226;2022-10-26T18:49:42;4.87;;;3.20;;
13204;SDS011;6667;52.634;9.226;2022-10-26T18:52:08;7.07;;;3.53;;
13204;SDS011;6667;52.634;9.226;2022-10-26T18:54:35;5.07;;;3.73;;
13204;SDS011;6667;52.634;9.226;2022-10-26T18:57:03;7.63;;;3.97;;
13204;SDS011;6667;52.634;9.226;2022-10-26T18:59:30;7.60;;;4.53;;
13204;SDS011;6667;52.634;9.226;2022-10-26T19:01:57;6.67;;;4.37;;
13204;SDS011;6667;52.634;9.226;2022-10-26T19:04:23;5.37;;;3.03;;
13204;SDS011;6667;52.634;9.226;2022-10-26T19:06:50;5.83;;;3.87;;
13204;SDS011;6667;52.634;9.226;2022-10-26T19:09:17;6.07;;;4.00;;
13204;SDS011;6667;52.634;9.226;2022-10-26T19:11:44;10.93;;;4.40;;
13204;SDS011;6667;52.634;9.226;2022-10-26T19:14:12;6.03;;;4.30;;
13204;SDS011;6667;52.634;9.226;2022-10-26T19:16:39;7.83;;;4.60;;
13204;SDS011;6667;52.634;9.226;2022-10-26T19:19:05;6.50;;;3.80;;
13204;SDS011;6667;52.634;9.226;2022-10-26T19:21:32;5.90;;;4.37;;
13204;SDS011;6667;52.634;9.226;2022-10-26T19:24:00;6.70;;;5.13;;
13204;SDS011;6667;52.634;9.226;2022-10-26T19:26:28;7.50;;;4.80;;
13204;SDS011;6667;52.634;9.226;2022-10-26T19:28:56;7.93;;;4.87;;
13204;SDS011;6667;52.634;9.226;2022-10-26T19:31:26;13.43;;;4.87;;
13204;SDS011;6667;52.634;9.226;2022-10-26T19:33:56;8.10;;;5.10;;
13204;SDS011;6667;52.634;9.226;2022-10-26T19:36:23;11.03;;;5.20;;
13204;SDS011;6667;52.634;9.226;2022-10-26T19:38:51;8.80;;;4.80;;
13204;SDS011;6667;52.634;9.226;2022-10-26T19:41:19;5.80;;;4.67;;
13204;SDS011;6667;52.634;9.226;2022-10-26T19:43:47;9.37;;;5.47;;
13204;SDS011;6667;52.634;9.226;2022-10-26T19:46:15;8.77;;;4.87;;
13204;SDS011;6667;52.634;9.226;2022-10-26T19:48:47;5.50;;;4.43;;
13204;SDS011;6667;52.634;9.226;2022-10-26T19:51:15;9.87;;;4.80;;
13204;SDS011;6667;52.634;9.226;2022-10-26T19:53:42;10.90;;;4.77;;
13204;SDS011;6667;52.634;9.226;2022-10-26T19:56:10;10.93;;;4.53;;
13204;SDS011;6667;52.634;9.226;2022-10-26T19:58:38;6.37;;;3.77;;
13204;SDS011;6667;52.634;9.226;2022-10-26T20:01:05;7.83;;;4.47;;
13204;SDS011;6667;52.634;9.226;2022-10-26T20:03:33;6.93;;;3.87;;
13204;SDS011;6667;52.634;9.226;2022-10-26T20:06:02;6.30;;;3.90;;
13204;SDS011;6667;52.634;9.226;2022-10-26T20:08:32;9.77;;;4.60;;
13204;SDS011;6667;52.634;9.226;2022-10-26T20:10:59;4.83;;;3.93;;
13204;SDS011;6667;52.634;9.226;2022-10-26T20:13:26;4.87;;;4.07;;
13204;SDS011;6667;52.634;9.226;2022-10-26T20:15:52;8.03;;;4.00;;
13204;SDS011;6667;52.634;9.226;2022-10-26T20:18:19;6.47;;;3.70;;
13204;SDS011;6667;52.634;9.226;2022-10-26T20:20:46;10.13;;;4.97;;
13204;SDS011;6667;52.634;9.226;2022-10-26T20:23:14;7.97;;;4.17;;
13204;SDS011;6667;52.634;9.226;2022-10-26T20:25:43;5.10;;;3.70;;
13204;SDS011;6667;52.634;9.226;2022-10-26T20:28:10;6.47;;;4.37;;
13204;SDS011;6667;52.634;9.226;2022-10-26T20:30:37;8.17;;;4.80;;
13204;SDS011;6667;52.634;9.226;2022-10-26T20:33:05;7.53;;;5.77;;
13204;SDS011;6667;52.634;9.226;2022-10-26T20:35:32;5.57;;;4.10;;
13204;SDS011;6667;52.634;9.226;2022-10-26T20:38:00;6.63;;;4.90;;
13204;SDS011;6667;52.634;9.226;2022-10-26T20:40:28;4.93;;;4.20;;
13204;SDS011;6667;52.634;9.226;2022-10-26T20:42:56;4.87;;;4.37;;
13204;SDS011;6667;52.634;9.226;2022-10-26T20:45:23;5.93;;;4.53;;
13204;SDS011;6667;52.634;9.226;2022-10-26T20:47:53;6.10;;;4.10;;
13204;SDS011;6667;52.634;9.226;2022-10-26T20:50:21;6.13;;;4.63;;
13204;SDS011;6667;52.634;9.226;2022-10-26T20:52:50;5.97;;;4.90;;
13204;SDS011;6667;52.634;9.226;2022-10-26T20:55:24;5.83;;;4.33;;
13204;SDS011;6667;52.634;9.226;2022-10-26T20:57:59;8.63;;;4.80;;
13204;SDS011;6667;52.634;9.226;2022-10-26T21:00:30;8.47;;;5.00;;
13204;SDS011;6667;52.634;9.226;2022-10-26T21:03:00;6.17;;;4.30;;
13204;SDS011;6667;52.634;9.226;2022-10-26T21:05:27;7.20;;;4.57;;
13204;SDS011;6667;52.634;9.226;2022-10-26T21:07:55;5.90;;;4.47;;
13204;SDS011;6667;52.634;9.226;2022-10-26T21:10:23;7.43;;;5.00;;
13204;SDS011;6667;52.634;9.226;2022-10-26T21:12:51;6.17;;;4.60;;
13204;SDS011;6667;52.634;9.226;2022-10-26T21:15:17;4.50;;;4.10;;
13204;SDS011;6667;52.634;9.226;2022-10-26T21:17:44;7.93;;;5.43;;
13204;SDS011;6667;52.634;9.226;2022-10-26T21:20:11;8.10;;;4.97;;
13204;SDS011;6667;52.634;9.226;2022-10-26T21:22:37;7.90;;;4.93;;
13204;SDS011;6667;52.634;9.226;2022-10-26T21:25:04;6.20;;;4.87;;
13204;SDS011;6667;52.634;9.226;2022-10-26T21:27:32;5.90;;;4.80;;
13204;SDS011;6667;52.634;9.226;2022-10-26T21:30:00;9.47;;;5.23;;
13204;SDS011;6667;52.634;9.226;2022-10-26T21:32:27;9.43;;;4.93;;
13204;SDS011;6667;52.634;9.226;2022-10-26T21:34:53;8.13;;;5.47;;
13204;SDS011;6667;52.634;9.226;2022-10-26T21:37:20;5.73;;;4.47;;
13204;SDS011;6667;52.634;9.226;2022-10-26T21:39:50;7.13;;;4.50;;
13204;SDS011;6667;52.634;9.226;2022-10-26T21:42:16;6.43;;;4.73;;
13204;SDS011;6667;52.634;9.226;2022-10-26T21:44:46;5.67;;;4.23;;
13204;SDS011;6667;52.634;9.226;2022-10-26T21:47:14;6.27;;;4.30;;
13204;SDS011;6667;52.634;9.226;2022-10-26T21:49:41;7.50;;;4.77;;
13204;SDS011;6667;52.634;9.226;2022-10-26T21:52:08;6.53;;;4.50;;
13204;SDS011;6667;52.634;9.226;2022-10-26T21:54:34;7.87;;;5.50;;